createdAt,value
2022-10-06T00:01:58.839Z,100393.75
2022-10-06T00:04:27.659Z,100403.91
2022-10-06T00:06:55.690Z,100422.56
2022-10-06T00:09:25.881Z,100430.75
2022-10-06T00:11:54.693Z,100417.47
2022-10-06T00:14:23.758Z,100421.41
2022-10-06T00:16:52.698Z,100429.75
2022-10-06T00:19:24.695Z,100435.25
2022-10-06T00:21:53.341Z,100441.03
2022-10-06T00:24:23.190Z,100432.00
2022-10-06T00:26:54.008Z,100434.56
2022-10-06T00:29:26.192Z,100437.66
2022-10-06T00:31:57.637Z,100445.97
2022-10-06T00:34:29.781Z,100440.06
2022-10-06T00:36:58.721Z,100448.66
2022-10-06T00:39:27.799Z,100446.69
2022-10-06T00:41:55.825Z,100438.38
2022-10-06T00:44:24.704Z,100442.75
2022-10-06T00:46:54.866Z,100437.69
2022-10-06T00:49:29.764Z,100444.59
2022-10-06T00:52:01.708Z,100441.03
2022-10-06T00:54:29.912Z,100441.91
2022-10-06T00:56:58.824Z,100435.28
2022-10-06T00:59:27.689Z,100434.13
2022-10-06T01:02:03.117Z,100429.63
2022-10-06T01:04:34.080Z,100429.63
2022-10-06T01:07:03.060Z,100423.84
2022-10-06T01:09:31.938Z,100419.03
2022-10-06T01:12:03.699Z,100423.56
2022-10-06T01:14:32.204Z,100427.06
2022-10-06T01:17:05.768Z,100428.19
2022-10-06T01:19:44.848Z,100428.34
2022-10-06T01:22:16.076Z,100448.13
2022-10-06T01:24:46.619Z,100441.91
2022-10-06T01:27:16.311Z,100438.22
2022-10-06T01:29:44.647Z,100441.00
2022-10-06T01:32:15.459Z,100443.28
2022-10-06T01:34:43.602Z,100449.22
2022-10-06T01:37:11.800Z,100436.38
2022-10-06T01:39:39.840Z,100438.22
2022-10-06T01:42:11.697Z,100442.31
2022-10-06T01:44:41.791Z,100443.44
2022-10-06T01:47:10.861Z,100447.09
2022-10-06T01:49:40.388Z,100447.91
2022-10-06T01:52:09.341Z,100438.19
2022-10-06T01:54:37.422Z,100437.66
2022-10-06T01:57:06.762Z,100440.72
2022-10-06T01:59:36.209Z,100447.78
2022-10-06T02:02:05.792Z,100448.88
2022-10-06T02:04:33.947Z,100442.84
2022-10-06T02:07:03.397Z,100453.69
2022-10-06T02:09:42.263Z,100446.91
2022-10-06T02:12:10.851Z,100453.09
2022-10-06T02:14:43.763Z,100449.00
2022-10-06T02:17:14.503Z,100464.66
2022-10-06T02:19:42.594Z,100456.44
2022-10-06T02:22:12.267Z,100459.09
2022-10-06T02:24:40.376Z,100450.22
2022-10-06T02:27:11.319Z,100454.50
2022-10-06T02:29:39.830Z,100453.34
2022-10-06T02:32:13.253Z,100468.28
2022-10-06T02:34:41.347Z,100466.94
2022-10-06T02:37:11.326Z,100456.31
2022-10-06T02:39:42.013Z,100452.09
2022-10-06T02:42:11.236Z,100453.38
2022-10-06T02:44:40.672Z,100456.44
2022-10-06T02:47:14.571Z,100452.50
2022-10-06T02:49:43.187Z,100466.78
2022-10-06T02:52:14.134Z,100468.41
2022-10-06T02:54:42.693Z,100463.34
2022-10-06T02:57:11.927Z,100472.50
2022-10-06T02:59:40.539Z,100459.28
2022-10-06T03:02:10.011Z,100472.19
2022-10-06T03:04:40.050Z,100479.28
2022-10-06T03:07:08.266Z,100474.81
2022-10-06T03:09:38.646Z,100477.06
2022-10-06T03:12:06.972Z,100483.72
2022-10-06T03:14:40.612Z,100485.38
2022-10-06T03:17:10.687Z,100476.84
2022-10-06T03:19:49.200Z,100481.97
2022-10-06T03:22:17.483Z,100493.84
2022-10-06T03:25:07.263Z,100487.75
2022-10-06T03:27:36.745Z,100489.88
2022-10-06T03:30:08.213Z,100488.34
2022-10-06T03:32:41.067Z,100485.84
2022-10-06T03:35:15.676Z,100493.50
2022-10-06T03:37:46.712Z,100486.13
2022-10-06T03:40:15.654Z,100494.22
2022-10-06T03:42:45.022Z,100497.41
2022-10-06T03:45:13.947Z,100500.63
2022-10-06T03:47:43.091Z,100493.97
2022-10-06T03:50:12.792Z,100505.94
2022-10-06T03:52:40.992Z,100511.19
2022-10-06T03:55:10.623Z,100513.63
2022-10-06T03:57:40.941Z,100507.66
2022-10-06T04:00:12.383Z,100514.00
2022-10-06T04:02:40.945Z,100515.91
2022-10-06T04:05:10.636Z,100506.31
2022-10-06T04:07:40.343Z,100509.00
2022-10-06T04:10:11.876Z,100515.19
2022-10-06T04:12:41.014Z,100513.16
2022-10-06T04:15:11.077Z,100525.19
2022-10-06T04:17:41.491Z,100515.13
2022-10-06T04:20:10.148Z,100524.28
2022-10-06T04:22:39.270Z,100517.84
2022-10-06T04:25:09.754Z,100524.84
2022-10-06T04:27:39.386Z,100524.72
2022-10-06T04:30:12.663Z,100527.78
2022-10-06T04:32:43.252Z,100526.09
2022-10-06T04:35:11.640Z,100524.97
2022-10-06T04:37:39.781Z,100530.00
2022-10-06T04:40:10.430Z,100537.09
2022-10-06T04:42:41.353Z,100537.34
2022-10-06T04:45:15.673Z,100544.03
2022-10-06T04:47:46.929Z,100533.34
2022-10-06T04:50:15.073Z,100540.84
2022-10-06T04:53:04.046Z,100549.19
2022-10-06T04:55:34.926Z,100543.78
2022-10-06T04:58:04.025Z,100541.28
2022-10-06T05:00:33.086Z,100543.00
2022-10-06T05:03:02.057Z,100548.66
2022-10-06T05:05:32.017Z,100552.00
2022-10-06T05:08:02.565Z,100557.22
2022-10-06T05:10:33.401Z,100564.25
2022-10-06T05:13:06.067Z,100568.69
2022-10-06T05:15:35.556Z,100560.25
2022-10-06T05:18:04.308Z,100559.06
2022-10-06T05:20:32.639Z,100570.00
2022-10-06T05:23:01.162Z,100572.59
2022-10-06T05:25:30.728Z,100578.16
2022-10-06T05:27:59.152Z,100579.63
2022-10-06T05:30:29.860Z,100577.97
2022-10-06T05:33:00.493Z,100584.44
2022-10-06T05:35:30.241Z,100592.38
2022-10-06T05:37:59.665Z,100590.31
2022-10-06T05:40:29.487Z,100596.31
2022-10-06T05:42:57.599Z,100595.97
2022-10-06T05:45:27.240Z,100600.97
2022-10-06T05:48:05.927Z,100610.81
2022-10-06T05:50:39.450Z,100598.63
2022-10-06T05:53:08.145Z,100609.78
2022-10-06T05:55:39.779Z,100616.03
2022-10-06T05:58:11.276Z,100618.19
2022-10-06T06:00:39.968Z,100624.72
2022-10-06T06:03:13.434Z,100623.00
2022-10-06T06:05:44.812Z,100622.16
2022-10-06T06:08:13.045Z,100623.69
2022-10-06T06:10:41.220Z,100626.75
2022-10-06T06:13:10.907Z,100629.22
2022-10-06T06:16:04.234Z,100630.47
2022-10-06T06:18:38.453Z,100641.84
2022-10-06T06:21:10.573Z,100644.53
2022-10-06T06:23:41.582Z,100644.38
2022-10-06T06:26:12.087Z,100652.22
2022-10-06T06:28:48.037Z,100655.75
2022-10-06T06:31:21.273Z,100653.19
2022-10-06T06:33:55.266Z,100662.78
2022-10-06T06:36:27.755Z,100665.25
2022-10-06T06:38:57.127Z,100667.34
2022-10-06T06:41:27.781Z,100672.84
2022-10-06T06:44:05.111Z,100672.00
2022-10-06T06:46:40.083Z,100682.66
2022-10-06T06:49:13.541Z,100673.44
2022-10-06T06:52:03.345Z,100677.97
2022-10-06T06:54:31.594Z,100684.75
2022-10-06T06:57:05.027Z,100683.22
2022-10-06T06:59:34.292Z,100688.03
2022-10-06T07:02:05.217Z,100689.72
2022-10-06T07:04:39.042Z,100681.78
2022-10-06T07:07:12.442Z,100687.50
2022-10-06T07:09:40.565Z,100687.81
2022-10-06T07:12:11.658Z,100689.81
2022-10-06T07:14:58.167Z,100687.81
2022-10-06T07:17:46.062Z,100693.81
2022-10-06T07:20:33.613Z,100693.00
2022-10-06T07:23:15.737Z,100697.00
2022-10-06T07:25:44.276Z,100694.25
2022-10-06T07:28:13.139Z,100694.25
2022-10-06T07:30:44.985Z,100692.69
2022-10-06T07:33:18.191Z,100695.00
2022-10-06T07:35:50.778Z,100700.97
2022-10-06T07:38:26.629Z,100698.59
2022-10-06T07:41:18.404Z,100702.28
2022-10-06T07:43:49.178Z,100711.31
2022-10-06T07:46:21.782Z,100709.78
2022-10-06T07:49:21.682Z,100703.53
2022-10-06T07:51:56.103Z,100706.09
2022-10-06T07:54:27.397Z,100710.91
2022-10-06T07:57:26.387Z,100713.03
2022-10-06T07:59:57.058Z,100700.69
2022-10-06T08:02:31.553Z,100706.06
2022-10-06T08:05:02.904Z,100705.25
2022-10-06T08:07:33.634Z,100709.03
2022-10-06T08:10:02.281Z,100707.88
2022-10-06T08:12:39.743Z,100719.44
2022-10-06T08:15:12.105Z,100716.84
2022-10-06T08:17:43.079Z,100715.59
2022-10-06T08:20:12.980Z,100724.03
2022-10-06T08:22:47.517Z,100727.53
2022-10-06T08:25:16.885Z,100724.28
2022-10-06T08:27:46.492Z,100726.38
2022-10-06T08:30:16.227Z,100721.41
2022-10-06T08:32:44.297Z,100728.28
2022-10-06T08:35:14.255Z,100728.53
2022-10-06T08:37:48.390Z,100730.47
2022-10-06T08:40:16.577Z,100732.22
2022-10-06T08:42:51.717Z,100722.00
2022-10-06T08:45:24.359Z,100732.00
2022-10-06T08:48:00.444Z,100735.31
2022-10-06T08:50:33.700Z,100728.53
2022-10-06T08:53:14.085Z,100724.03
2022-10-06T08:55:49.088Z,100724.19
2022-10-06T08:58:33.245Z,100725.78
2022-10-06T09:01:16.856Z,100728.56
2022-10-06T09:03:48.480Z,100728.34
2022-10-06T09:06:26.284Z,100721.69
2022-10-06T09:09:00.846Z,100735.38
2022-10-06T09:11:43.018Z,100744.75
2022-10-06T09:14:16.338Z,100722.81
2022-10-06T09:16:49.820Z,100723.78
2022-10-06T09:19:24.685Z,100723.59
2022-10-06T09:21:54.457Z,100725.25
2022-10-06T09:24:34.160Z,100727.09
2022-10-06T09:27:16.574Z,100731.41
2022-10-06T09:29:44.629Z,100736.97
2022-10-06T09:32:14.733Z,100735.75
2022-10-06T09:34:47.304Z,100733.50
2022-10-06T09:37:15.567Z,100742.22
2022-10-06T09:39:48.241Z,100732.06
2022-10-06T09:42:22.923Z,100729.63
2022-10-06T09:44:58.235Z,100729.00
2022-10-06T09:47:46.005Z,100741.31
2022-10-06T09:50:22.384Z,100740.47
2022-10-06T09:53:17.627Z,100747.19
2022-10-06T09:55:55.500Z,100741.59
2022-10-06T09:58:34.351Z,100746.03
2022-10-06T10:01:04.483Z,100752.50
2022-10-06T10:04:02.355Z,100763.59
2022-10-06T10:06:40.651Z,100752.78
2022-10-06T10:09:24.541Z,100748.75
2022-10-06T10:12:29.998Z,100752.13
2022-10-06T10:15:01.952Z,100760.81
2022-10-06T10:17:44.620Z,100764.44
2022-10-06T10:20:35.368Z,100755.06
2022-10-06T10:23:20.044Z,100770.06
2022-10-06T10:26:08.709Z,100753.69
2022-10-06T10:28:55.335Z,100747.94
2022-10-06T10:31:32.282Z,100761.44
2022-10-06T10:34:20.269Z,100757.16
2022-10-06T10:36:55.908Z,100763.13
2022-10-06T10:39:31.784Z,100751.25
2022-10-06T10:42:05.472Z,100769.59
2022-10-06T10:44:37.369Z,100762.41
2022-10-06T10:47:23.513Z,100753.03
2022-10-06T10:49:59.815Z,100753.88
2022-10-06T10:52:30.498Z,100757.72
2022-10-06T10:55:06.929Z,100763.53
2022-10-06T10:57:38.594Z,100759.75
2022-10-06T11:00:10.158Z,100765.41
2022-10-06T11:02:38.855Z,100758.28
2022-10-06T11:05:17.400Z,100749.28
2022-10-06T11:07:49.536Z,100758.00
2022-10-06T11:10:24.837Z,100750.41
2022-10-06T11:13:09.334Z,100738.94
2022-10-06T11:16:02.132Z,100736.25
2022-10-06T11:18:41.416Z,100744.03
2022-10-06T11:21:14.275Z,100750.78
2022-10-06T11:23:49.764Z,100742.72
2022-10-06T11:26:41.492Z,100750.00
2022-10-06T11:29:22.897Z,100745.91
2022-10-06T11:32:00.660Z,100748.81
2022-10-06T11:34:29.553Z,100738.34
2022-10-06T11:37:02.929Z,100748.16
2022-10-06T11:39:37.225Z,100753.22
2022-10-06T11:42:16.022Z,100750.97
2022-10-06T11:44:49.958Z,100751.44
2022-10-06T11:47:35.148Z,100743.44
2022-10-06T11:50:35.699Z,100749.75
2022-10-06T11:53:04.226Z,100746.44
2022-10-06T11:55:33.212Z,100740.25
2022-10-06T12:01:08.621Z,100750.69
2022-10-06T12:04:05.637Z,100737.53
2022-10-06T12:06:59.913Z,100743.25
2022-10-06T12:09:51.934Z,100740.84
2022-10-06T12:13:05.322Z,100745.53
2022-10-06T12:19:00.558Z,100730.06
2022-10-06T12:21:38.038Z,100723.25
2022-10-06T12:24:22.706Z,100739.25
2022-10-06T12:26:58.626Z,100729.50
2022-10-06T12:29:43.596Z,100732.88
2022-10-06T12:32:20.169Z,100720.59
2022-10-06T12:34:58.720Z,100724.63
2022-10-06T12:37:53.100Z,100720.13
2022-10-06T12:40:47.879Z,100717.47
2022-10-06T12:43:35.051Z,100716.59
2022-10-06T12:46:07.541Z,100728.88
2022-10-06T12:48:41.763Z,100709.91
2022-10-06T12:51:26.159Z,100712.97
2022-10-06T12:54:04.940Z,100718.22
2022-10-06T12:56:37.261Z,100722.09
2022-10-06T12:59:27.564Z,100717.88
2022-10-06T13:01:57.721Z,100722.38
2022-10-06T13:04:37.928Z,100723.25
2022-10-06T13:07:12.874Z,100718.38
2022-10-06T13:09:42.327Z,100722.47
2022-10-06T13:12:31.265Z,100708.47
2022-10-06T13:15:19.042Z,100717.56
2022-10-06T13:17:51.104Z,100713.09
2022-10-06T13:20:27.559Z,100710.97
2022-10-06T13:23:01.179Z,100713.03
2022-10-06T13:25:37.749Z,100722.91
2022-10-06T13:28:07.286Z,100718.34
2022-10-06T13:30:39.012Z,100710.63
2022-10-06T13:33:08.574Z,100708.19
2022-10-06T13:35:37.905Z,100709.56
2022-10-06T13:38:06.927Z,100714.16
2022-10-06T13:40:44.552Z,100715.00
2022-10-06T13:43:19.191Z,100714.00
2022-10-06T13:45:49.371Z,100714.66
2022-10-06T13:48:28.696Z,100717.53
2022-10-06T13:50:56.806Z,100712.97
2022-10-06T13:53:31.901Z,100711.56
2022-10-06T13:56:04.134Z,100713.97
2022-10-06T13:58:32.801Z,100717.84
2022-10-06T14:01:03.983Z,100713.75
2022-10-06T14:06:19.043Z,100714.44
2022-10-06T14:08:51.788Z,100722.50
2022-10-06T14:11:28.867Z,100725.81
2022-10-06T14:13:59.128Z,100725.50
2022-10-06T14:16:28.448Z,100720.84
2022-10-06T14:19:00.719Z,100721.72
2022-10-06T14:21:34.024Z,100724.19
2022-10-06T14:24:06.195Z,100724.66
2022-10-06T14:26:39.989Z,100724.28
2022-10-06T14:29:08.902Z,100730.44
2022-10-06T14:31:41.009Z,100716.06
2022-10-06T14:34:14.578Z,100728.00
2022-10-06T14:36:43.903Z,100726.13
2022-10-06T14:39:14.031Z,100735.41
2022-10-06T14:41:45.540Z,100728.38
2022-10-06T14:44:15.766Z,100733.53
2022-10-06T14:46:48.780Z,100723.88
2022-10-06T14:49:17.652Z,100728.09
2022-10-06T14:51:47.936Z,100729.31
2022-10-06T14:54:16.263Z,100735.13
2022-10-06T14:56:46.260Z,100733.09
2022-10-06T14:59:18.037Z,100717.34
2022-10-06T15:01:46.841Z,100729.81
2022-10-06T15:04:21.473Z,100732.59
2022-10-06T15:07:07.372Z,100723.34
2022-10-06T15:09:35.767Z,100730.25
2022-10-06T15:12:05.797Z,100723.88
2022-10-06T15:14:39.456Z,100731.28
2022-10-06T15:17:08.153Z,100735.69
2022-10-06T15:19:36.187Z,100731.28
2022-10-06T15:22:06.422Z,100733.81
2022-10-06T15:24:35.656Z,100732.03
2022-10-06T15:27:25.104Z,100736.06
2022-10-06T15:29:56.240Z,100725.88
2022-10-06T15:32:24.367Z,100735.25
2022-10-06T15:34:53.030Z,100743.00
2022-10-06T15:37:22.171Z,100740.94
2022-10-06T15:39:54.289Z,100747.59
2022-10-06T15:42:26.235Z,100746.84
2022-10-06T15:44:54.375Z,100746.28
2022-10-06T15:47:25.399Z,100746.84
2022-10-06T15:49:53.957Z,100752.47
2022-10-06T15:52:22.962Z,100743.47
2022-10-06T15:54:52.003Z,100755.94
2022-10-06T15:57:22.520Z,100750.56
2022-10-06T15:59:52.084Z,100753.66
2022-10-06T16:02:23.003Z,100756.78
2022-10-06T16:05:20.434Z,100765.25
2022-10-06T16:07:50.817Z,100768.94
2022-10-06T16:10:18.911Z,100765.53
2022-10-06T16:12:47.277Z,100768.59
2022-10-06T16:15:18.291Z,100772.03
2022-10-06T16:17:48.479Z,100774.25
2022-10-06T16:20:18.231Z,100775.59
2022-10-06T16:22:46.667Z,100780.09
2022-10-06T16:25:14.858Z,100787.81
2022-10-06T16:27:43.003Z,100783.75
2022-10-06T16:30:12.894Z,100788.69
2022-10-06T16:32:42.868Z,100790.25
2022-10-06T16:35:16.052Z,100790.09
2022-10-06T16:37:49.913Z,100793.31
2022-10-06T16:40:19.025Z,100795.91
2022-10-06T16:42:47.097Z,100797.22
2022-10-06T16:45:15.503Z,100802.88
2022-10-06T16:47:45.201Z,100803.22
2022-10-06T16:50:13.300Z,100815.09
2022-10-06T16:52:41.582Z,100819.50
2022-10-06T16:55:10.007Z,100811.00
2022-10-06T16:57:38.092Z,100815.78
2022-10-06T17:00:06.840Z,100813.25
2022-10-06T17:02:35.080Z,100810.28
2022-10-06T17:05:04.965Z,100810.88
2022-10-06T17:07:34.121Z,100808.72
2022-10-06T17:10:19.573Z,100809.75
2022-10-06T17:12:48.512Z,100816.91
2022-10-06T17:15:16.608Z,100815.06
2022-10-06T17:17:44.687Z,100822.03
2022-10-06T17:20:16.098Z,100818.63
2022-10-06T17:22:44.510Z,100820.00
2022-10-06T17:25:14.208Z,100824.75
2022-10-06T17:27:42.318Z,100829.53
2022-10-06T17:30:11.398Z,100826.28
2022-10-06T17:32:39.585Z,100825.25
2022-10-06T17:35:09.058Z,100828.84
2022-10-06T17:37:40.410Z,100829.19
2022-10-06T17:40:09.748Z,100834.94
2022-10-06T17:42:38.904Z,100832.22
2022-10-06T17:45:07.855Z,100836.47
2022-10-06T17:47:35.971Z,100831.53
2022-10-06T17:50:04.283Z,100834.63
2022-10-06T17:52:32.963Z,100838.84
2022-10-06T17:55:02.514Z,100842.75
2022-10-06T17:57:31.411Z,100843.06
2022-10-06T18:00:00.034Z,100841.03
2022-10-06T18:02:28.511Z,100835.44
2022-10-06T18:04:57.385Z,100834.28
2022-10-06T18:07:25.952Z,100839.38
2022-10-06T18:10:07.991Z,100829.03
2022-10-06T18:12:39.020Z,100834.97
2022-10-06T18:15:12.522Z,100836.31
2022-10-06T18:17:41.608Z,100833.28
2022-10-06T18:20:10.545Z,100835.81
2022-10-06T18:22:38.995Z,100822.09
2022-10-06T18:25:09.862Z,100827.84
2022-10-06T18:27:39.683Z,100829.00
2022-10-06T18:30:09.719Z,100836.63
2022-10-06T18:34:46.809Z,100838.31
2022-10-06T18:38:15.678Z,100838.25
2022-10-06T18:40:44.958Z,100844.00
2022-10-06T18:43:15.508Z,100847.03
2022-10-06T18:45:57.774Z,100845.31
2022-10-06T18:48:44.019Z,100849.31
2022-10-06T18:51:12.417Z,100846.06
2022-10-06T18:53:40.902Z,100851.41
2022-10-06T18:56:11.241Z,100850.78
2022-10-06T18:58:41.824Z,100855.97
2022-10-06T19:01:10.242Z,100854.44
2022-10-06T19:03:39.387Z,100841.56
2022-10-06T19:06:14.280Z,100858.09
2022-10-06T19:08:46.497Z,100854.25
2022-10-06T19:11:34.601Z,100850.31
2022-10-06T19:14:05.146Z,100850.47
2022-10-06T19:16:34.046Z,100845.81
2022-10-06T19:19:10.647Z,100845.38
2022-10-06T19:21:41.628Z,100852.53
2022-10-06T19:24:13.729Z,100846.53
2022-10-06T19:26:45.991Z,100841.81
2022-10-06T19:29:24.470Z,100841.22
2022-10-06T19:31:55.447Z,100853.03
2022-10-06T19:34:26.355Z,100848.47
2022-10-06T19:36:58.768Z,100855.47
2022-10-06T19:39:31.021Z,100849.78
2022-10-06T19:42:18.069Z,100853.66
2022-10-06T19:44:48.422Z,100860.75
2022-10-06T19:47:19.720Z,100862.16
2022-10-06T19:49:49.792Z,100863.19
2022-10-06T19:52:19.644Z,100863.19
2022-10-06T19:54:49.486Z,100869.53
2022-10-06T19:57:19.137Z,100873.59
2022-10-06T19:59:50.874Z,100870.06
2022-10-06T20:02:19.296Z,100872.97
2022-10-06T20:04:47.617Z,100872.34
2022-10-06T20:07:16.314Z,100870.88
2022-10-06T20:09:44.395Z,100874.47
2022-10-06T20:12:13.063Z,100889.19
2022-10-06T20:14:41.157Z,100880.50
2022-10-06T20:17:10.627Z,100882.19
2022-10-06T20:19:40.090Z,100884.06
2022-10-06T20:22:08.312Z,100877.97
2022-10-06T20:24:36.369Z,100886.22
2022-10-06T20:27:04.539Z,100885.22
2022-10-06T20:29:33.000Z,100889.69
2022-10-06T20:32:01.560Z,100885.53
2022-10-06T20:34:32.289Z,100880.06
2022-10-06T20:37:05.007Z,100885.31
2022-10-06T20:39:51.405Z,100882.34
2022-10-06T20:42:21.252Z,100887.28
2022-10-06T20:44:49.804Z,100888.84
2022-10-06T20:47:18.344Z,100881.16
2022-10-06T20:49:53.467Z,100878.31
2022-10-06T20:52:23.248Z,100882.59
2022-10-06T20:54:51.450Z,100879.22
2022-10-06T20:57:20.441Z,100879.22
2022-10-06T20:59:48.495Z,100884.25
2022-10-06T21:02:17.483Z,100874.91
2022-10-06T21:04:47.330Z,100883.31
2022-10-06T21:07:16.443Z,100878.94
2022-10-06T21:09:51.250Z,100875.94
2022-10-06T21:12:20.377Z,100882.97
2022-10-06T21:14:48.843Z,100874.84
2022-10-06T21:17:17.507Z,100875.41
2022-10-06T21:19:47.079Z,100863.69
2022-10-06T21:22:15.586Z,100866.50
2022-10-06T21:24:45.027Z,100871.25
2022-10-06T21:27:13.484Z,100870.56
2022-10-06T21:29:42.756Z,100869.66
2022-10-06T21:32:13.463Z,100865.41
2022-10-06T21:34:41.623Z,100867.34
2022-10-06T21:37:14.771Z,100864.81
2022-10-06T21:39:43.939Z,100870.88
2022-10-06T21:42:12.419Z,100861.53
2022-10-06T21:44:40.561Z,100859.63
2022-10-06T21:47:12.059Z,100861.94
2022-10-06T21:49:41.596Z,100857.16
2022-10-06T21:52:13.762Z,100869.03
2022-10-06T21:54:43.267Z,100859.53
2022-10-06T21:57:11.527Z,100852.50
2022-10-06T21:59:39.705Z,100862.53
2022-10-06T22:02:08.152Z,100849.16
2022-10-06T22:04:37.707Z,100859.06
2022-10-06T22:07:05.842Z,100858.53
2022-10-06T22:09:35.348Z,100856.66
2022-10-06T22:12:03.498Z,100850.16
2022-10-06T22:14:31.615Z,100852.25
2022-10-06T22:17:00.501Z,100853.56
2022-10-06T22:19:28.712Z,100854.56
2022-10-06T22:21:56.839Z,100858.50
2022-10-06T22:24:25.028Z,100853.34
2022-10-06T22:26:54.581Z,100848.41
2022-10-06T22:29:22.726Z,100854.25
2022-10-06T22:31:50.984Z,100855.47
2022-10-06T22:34:20.862Z,100851.38
2022-10-06T22:36:49.007Z,100853.38
2022-10-06T22:39:17.155Z,100850.94
2022-10-06T22:41:45.592Z,100852.69
2022-10-06T22:44:15.120Z,100853.38
2022-10-06T22:46:43.326Z,100850.72
2022-10-06T22:49:11.777Z,100853.97
2022-10-06T22:51:39.929Z,100845.63
2022-10-06T22:54:08.099Z,100852.38
2022-10-06T22:56:36.303Z,100841.66
2022-10-06T22:59:04.763Z,100843.94
2022-10-06T23:01:34.271Z,100850.19
2022-10-06T23:04:02.454Z,100838.69
2022-10-06T23:06:31.547Z,100839.06
2022-10-06T23:08:59.977Z,100845.63
2022-10-06T23:11:28.367Z,100839.69
2022-10-06T23:13:56.472Z,100842.38
2022-10-06T23:16:24.828Z,100839.06
2022-10-06T23:18:55.222Z,100836.56
2022-10-06T23:21:27.409Z,100840.69
2022-10-06T23:23:57.301Z,100836.81
2022-10-06T23:26:25.640Z,100837.47
2022-10-06T23:28:55.011Z,100843.34
2022-10-06T23:31:23.511Z,100836.97
2022-10-06T23:33:51.800Z,100838.16
2022-10-06T23:36:21.580Z,100842.63
2022-10-06T23:38:49.692Z,100841.31
2022-10-06T23:41:18.232Z,100846.63
2022-10-06T23:43:46.427Z,100841.53
2022-10-06T23:46:15.210Z,100849.16
2022-10-06T23:48:43.679Z,100841.13
2022-10-06T23:51:13.240Z,100846.81
2022-10-06T23:53:43.126Z,100849.06
2022-10-06T23:56:11.895Z,100852.72
2022-10-06T23:58:41.757Z,100850.75
